Terminal Aerodrome Forecast
Issued by NWS

Home | Current Version | Previous Version | Text Only | Print | Product List | Glossary On
Versions: 1 2 3 4 5 6 7 8 9 10 11 12 13 14 15 16 17 18 19 20 21 22 23 24 25 26 27 28 29 30 31 32 33 34
000
FTUS42 KCAE 031100
TAFOGB
TAF
KOGB 031136Z 0312/0412 09006KT 6SM BR VCSH OVC008
     FM031500 07006KT 2SM -RADZ BR OVC006 WS020/16028KT
     FM032300 10005KT 5SM BR OVC015 WS020/18030KT
     FM040500 18005KT 1SM BR OVC003 WS020/21035KT=

USA.gov is the U.S. government's official web portal to all federal, state and local government web resources and services.